Time;durP1;ratioP1;P1;durP2;ratioP2;P2;SDS_P1;SDS_P2;PMS_P1;PMS_P2;Temp;Humidity;BMP_temperature;BMP_pressure;BME280_temperature;BME280_humidity;BME280_pressure;Samples;Min_cycle;Max_cycle;Signal;HPM_P1;HPM_P2
2023/12/02 00:02:21;;;;;;;7.13;3.50;;;;;;;16.96;48.33;95066.53;10391068;28;20504;-29
2023/12/02 00:07:21;;;;;;;5.13;3.17;;;;;;;16.99;48.68;95068.19;10391979;28;20399;-30
2023/12/02 00:12:21;;;;;;;3.47;3.03;;;;;;;16.96;48.16;95064.00;10398882;28;20456;-30
2023/12/02 00:17:22;;;;;;;3.30;3.00;;;;;;;17.01;48.35;95068.97;10395507;28;20073;-29
2023/12/02 00:22:22;;;;;;;4.97;3.37;;;;;;;16.99;47.92;95068.19;10409292;28;20033;-30
2023/12/02 00:27:22;;;;;;;6.53;3.23;;;;;;;17.00;47.96;95057.19;10402986;28;20029;-30
2023/12/02 00:32:23;;;;;;;3.33;3.03;;;;;;;16.94;48.01;95054.78;10406334;28;20026;-29
2023/12/02 00:37:23;;;;;;;3.23;2.77;;;;;;;16.93;48.10;95070.81;10409819;28;20037;-30
2023/12/02 00:42:23;;;;;;;3.27;2.97;;;;;;;16.92;48.18;95075.03;10415027;28;20068;-29
2023/12/02 00:47:24;;;;;;;3.77;3.30;;;;;;;16.88;47.85;95088.63;10401009;28;20037;-29
2023/12/02 00:52:24;;;;;;;2.50;2.30;;;;;;;16.89;47.91;95097.03;10410824;28;20093;-29
2023/12/02 00:57:25;;;;;;;3.35;2.80;;;;;;;16.88;48.15;95097.88;10411732;28;20083;-29
2023/12/02 01:02:25;;;;;;;4.00;2.97;;;;;;;16.88;47.96;95105.47;10403294;28;20416;-30
2023/12/02 01:07:25;;;;;;;2.97;2.67;;;;;;;16.91;47.94;95110.47;10399972;28;20033;-29
2023/12/02 01:12:26;;;;;;;2.87;2.63;;;;;;;16.89;48.08;95086.94;10409344;28;20076;-30
2023/12/02 01:17:26;;;;;;;2.67;2.47;;;;;;;16.86;48.00;95092.88;10405703;28;20034;-29
2023/12/02 01:22:27;;;;;;;2.80;2.57;;;;;;;16.87;48.21;95113.91;10404099;28;20038;-29
2023/12/02 01:27:27;;;;;;;4.23;3.80;;;;;;;16.82;48.37;95106.41;10393291;28;20045;-30
2023/12/02 01:32:27;;;;;;;4.17;2.87;;;;;;;16.79;48.22;95116.59;10397418;28;20120;-29
2023/12/02 01:37:28;;;;;;;3.00;2.73;;;;;;;16.84;47.74;95119.84;10402119;28;20296;-30
2023/12/02 01:42:28;;;;;;;3.20;2.90;;;;;;;16.83;47.36;95130.00;10397876;28;20042;-29
2023/12/02 01:47:29;;;;;;;2.88;2.50;;;;;;;16.88;47.13;95125.69;10400459;28;20381;-29
2023/12/02 01:52:29;;;;;;;3.37;2.67;;;;;;;16.86;47.30;95127.41;10398902;28;20034;-29
2023/12/02 01:57:30;;;;;;;4.67;2.97;;;;;;;16.86;47.30;95123.19;10401656;28;20045;-29
2023/12/02 02:02:30;;;;;;;3.72;2.88;;;;;;;16.83;47.37;95132.53;10398611;28;20311;-28
2023/12/02 02:07:30;;;;;;;3.33;2.50;;;;;;;16.84;47.21;95140.06;10395991;28;20034;-30
2023/12/02 02:12:31;;;;;;;2.97;2.67;;;;;;;16.81;47.50;95140.13;10407944;28;20794;-29
2023/12/02 02:17:31;;;;;;;2.60;2.40;;;;;;;16.78;48.28;95144.41;10403578;28;20053;-28
2023/12/02 02:22:32;;;;;;;2.73;2.30;;;;;;;16.68;48.21;95120.19;10396259;28;20303;-30
2023/12/02 02:27:32;;;;;;;3.20;2.45;;;;;;;16.75;48.38;95149.53;10393059;28;20548;-29
2023/12/02 02:32:32;;;;;;;3.53;2.47;;;;;;;16.76;48.02;95141.09;10392762;28;20407;-29
2023/12/02 02:37:33;;;;;;;3.23;2.70;;;;;;;16.74;47.86;95148.69;10392256;28;20131;-29
2023/12/02 02:42:33;;;;;;;2.90;2.50;;;;;;;16.75;47.98;95144.47;10399807;28;20033;-29
2023/12/02 02:47:33;;;;;;;3.83;2.80;;;;;;;16.74;48.32;95155.44;10390535;28;20107;-28
2023/12/02 02:52:34;;;;;;;2.77;2.43;;;;;;;16.71;48.35;95168.13;10392056;28;20045;-29
2023/12/02 02:57:34;;;;;;;2.60;2.40;;;;;;;16.72;48.58;95174.88;10389671;28;20060;-29
2023/12/02 03:02:38;;;;;;;2.47;2.28;;;;;;;16.69;48.11;95187.53;10384911;28;20026;-29
2023/12/02 03:07:39;;;;;;;4.68;2.92;;;;;;;16.66;48.57;95195.19;10387374;28;20037;-30
2023/12/02 03:12:40;;;;;;;4.10;2.85;;;;;;;16.65;47.97;95193.50;10389202;28;20050;-29
2023/12/02 03:17:40;;;;;;;4.90;3.20;;;;;;;16.57;47.96;95174.28;10390025;28;20029;-30
2023/12/02 03:22:40;;;;;;;4.07;2.70;;;;;;;16.67;48.05;95186.72;10389159;28;20375;-29
2023/12/02 03:27:41;;;;;;;2.37;2.17;;;;;;;16.72;47.39;95197.59;10389555;28;20033;-29
2023/12/02 03:32:41;;;;;;;2.87;2.40;;;;;;;16.75;46.70;95197.53;10393739;28;20288;-30
2023/12/02 03:37:41;;;;;;;2.83;2.53;;;;;;;16.79;46.97;95201.66;10398076;28;20504;-29
2023/12/02 03:42:42;;;;;;;3.03;2.73;;;;;;;16.83;46.65;95215.94;10385698;28;21874;-30
2023/12/02 03:47:42;;;;;;;2.60;2.30;;;;;;;16.82;46.32;95217.59;10386082;28;20030;-29
2023/12/02 03:52:43;;;;;;;2.83;2.50;;;;;;;16.74;46.34;95205.97;10384785;28;20296;-29
2023/12/02 03:57:43;;;;;;;2.30;2.10;;;;;;;16.87;46.09;95235.22;10388313;28;20880;-29
2023/12/02 04:02:43;;;;;;;3.17;2.38;;;;;;;16.90;46.03;95245.31;10383017;28;20038;-29
2023/12/02 04:07:44;;;;;;;2.50;2.30;;;;;;;16.89;46.07;95248.69;10385924;28;20036;-29
2023/12/02 04:12:44;;;;;;;2.50;2.30;;;;;;;16.85;46.24;95244.53;10392405;28;20092;-29
2023/12/02 04:17:44;;;;;;;2.60;2.38;;;;;;;16.78;46.37;95240.44;10382354;28;20037;-29
2023/12/02 04:22:45;;;;;;;2.90;2.60;;;;;;;16.76;46.71;95242.16;10386246;28;20041;-30
2023/12/02 04:27:46;;;;;;;3.07;2.57;;;;;;;16.82;46.41;95268.16;10381718;28;20037;-29
2023/12/02 04:32:46;;;;;;;2.90;2.30;;;;;;;16.82;46.54;95272.38;10384586;28;20041;-29
2023/12/02 04:37:47;;;;;;;2.37;2.17;;;;;;;16.79;46.74;95269.91;10385407;28;20049;-29
2023/12/02 04:42:47;;;;;;;1.90;1.75;;;;;;;16.78;47.02;95290.97;10383233;28;20288;-29
2023/12/02 04:47:48;;;;;;;2.07;1.87;;;;;;;16.69;47.16;95291.13;10385057;28;20026;-29
2023/12/02 04:52:49;;;;;;;2.83;2.23;;;;;;;16.66;47.26;95301.28;10388076;28;20057;-29
2023/12/02 04:57:49;;;;;;;2.95;2.30;;;;;;;16.73;46.38;95312.97;10383169;28;20022;-29
2023/12/02 05:02:50;;;;;;;2.97;2.00;;;;;;;16.79;46.06;95322.97;10379787;28;20049;-30
2023/12/02 05:07:50;;;;;;;2.20;2.00;;;;;;;16.82;46.14;95320.41;10389193;28;20424;-30
2023/12/02 05:12:51;;;;;;;2.10;1.80;;;;;;;16.82;46.05;95321.22;10395445;28;20049;-29
2023/12/02 05:17:51;;;;;;;2.13;1.90;;;;;;;16.80;45.83;95324.63;10387206;28;20556;-30
2023/12/02 05:22:52;;;;;;;2.22;1.98;;;;;;;16.76;45.71;95328.09;10390256;28;20034;-29
2023/12/02 05:27:52;;;;;;;1.77;1.57;;;;;;;16.80;45.24;95340.66;10383251;28;20096;-30
2023/12/02 05:32:52;;;;;;;2.23;1.90;;;;;;;16.82;45.84;95354.09;10396642;28;20029;-29
2023/12/02 05:37:53;;;;;;;1.60;1.50;;;;;;;16.80;45.40;95355.81;10387473;28;20038;-29
2023/12/02 05:42:53;;;;;;;2.53;1.80;;;;;;;16.80;45.76;95365.06;10385840;28;20400;-30
2023/12/02 05:47:53;;;;;;;1.70;1.60;;;;;;;16.81;45.90;95371.81;10394030;28;20391;-30
2023/12/02 05:52:54;;;;;;;1.97;1.83;;;;;;;16.78;45.89;95387.00;10392681;28;20025;-30
2023/12/02 05:57:54;;;;;;;2.20;1.97;;;;;;;16.80;46.10;95395.41;10388937;28;20300;-30
2023/12/02 06:02:55;;;;;;;2.13;1.85;;;;;;;16.75;46.33;95408.09;10395541;28;20682;-31
2023/12/02 06:07:55;;;;;;;1.60;1.50;;;;;;;16.76;45.97;95408.94;10424066;28;20547;-29
2023/12/02 06:12:55;;;;;;;1.80;1.70;;;;;;;16.81;45.95;95424.88;10407932;28;20085;-29
2023/12/02 06:17:57;;;;;;;2.17;1.70;;;;;;;16.87;46.08;95439.94;10410899;28;20072;-29
2023/12/02 06:22:57;;;;;;;3.77;1.67;;;;;;;16.91;46.03;95439.88;10411554;28;20032;-29
2023/12/02 06:27:57;;;;;;;1.80;1.70;;;;;;;16.93;46.25;95453.34;10409173;28;20295;-29
2023/12/02 06:32:58;;;;;;;1.87;1.63;;;;;;;16.98;45.98;95458.34;10408198;28;20280;-30
2023/12/02 06:37:59;;;;;;;1.80;1.70;;;;;;;17.01;45.87;95450.72;10403942;28;20041;-30
2023/12/02 06:42:59;;;;;;;2.83;2.60;;;;;;;17.03;46.09;95459.09;10398308;28;20041;-29
2023/12/02 06:48:00;;;;;;;1.30;1.20;;;;;;;17.04;46.06;95476.78;10403526;28;20083;-29
2023/12/02 06:53:01;;;;;;;2.05;1.85;;;;;;;17.06;46.55;95485.19;10399420;28;20072;-29
2023/12/02 06:58:03;;;;;;;1.60;1.47;;;;;;;17.08;46.10;95485.16;10397186;28;20041;-30
2023/12/02 07:03:03;;;;;;;3.67;1.42;;;;;;;17.07;45.61;95496.97;10409025;28;20112;-29
2023/12/02 07:08:04;;;;;;;1.57;1.47;;;;;;;17.07;45.86;95501.19;10392727;28;20159;-29
2023/12/02 07:13:04;;;;;;;1.73;1.45;;;;;;;17.07;45.62;95503.72;10390609;28;20037;-30
2023/12/02 07:18:04;;;;;;;2.97;1.53;;;;;;;17.09;46.30;95515.47;10420743;28;20045;-28
2023/12/02 07:23:05;;;;;;;1.77;1.50;;;;;;;17.13;45.27;95526.38;10410623;28;20602;-29
2023/12/02 07:28:05;;;;;;;1.73;1.40;;;;;;;17.06;45.48;95525.63;10406521;28;20134;-30
2023/12/02 07:33:05;;;;;;;1.53;1.43;;;;;;;17.11;45.20;95539.06;10411838;28;20055;-29
2023/12/02 07:38:06;;;;;;;1.97;1.77;;;;;;;17.11;44.15;95544.13;10416722;28;20029;-29
2023/12/02 07:43:06;;;;;;;1.80;1.70;;;;;;;17.09;44.10;95550.88;10411616;28;20099;-29
2023/12/02 07:48:07;;;;;;;2.23;1.90;;;;;;;17.07;43.71;95554.28;10406003;28;20029;-30
2023/12/02 07:53:08;;;;;;;2.95;2.00;;;;;;;17.02;44.68;95572.06;10398621;28;20284;-30
2023/12/02 07:58:08;;;;;;;2.15;1.95;;;;;;;17.07;44.86;95582.09;10391567;28;20030;-29
2023/12/02 08:03:09;;;;;;;2.47;1.75;;;;;;;17.07;45.26;95597.28;10398389;28;20649;-28
2023/12/02 08:08:09;;;;;;;2.60;1.50;;;;;;;17.05;44.72;95596.44;10394599;28;20037;-30
2023/12/02 08:13:10;;;;;;;4.20;1.77;;;;;;;17.09;44.97;95608.22;10400996;28;20034;-29
2023/12/02 08:18:10;;;;;;;1.60;1.50;;;;;;;17.06;44.96;95615.84;10408808;28;20037;-29
2023/12/02 08:23:10;;;;;;;1.47;1.27;;;;;;;17.01;45.27;95617.56;10399023;28;20307;-30
2023/12/02 08:28:11;;;;;;;9.30;1.60;;;;;;;17.03;46.71;95641.13;10403741;28;20030;-29
2023/12/02 08:33:11;;;;;;;5.72;1.40;;;;;;;17.03;44.43;95641.13;10414252;28;20040;-30
2023/12/02 08:38:11;;;;;;;3.77;1.63;;;;;;;17.04;45.13;95652.91;10404371;28;20069;-29
2023/12/02 08:43:12;;;;;;;1.93;1.40;;;;;;;17.03;45.02;95668.94;10408316;28;20034;-31
2023/12/02 08:48:12;;;;;;;3.20;1.80;;;;;;;17.02;45.33;95662.22;10415939;28;20292;-29
2023/12/02 08:53:13;;;;;;;3.07;2.37;;;;;;;16.84;44.12;95680.13;10409225;28;20048;-30
2023/12/02 08:58:13;;;;;;;6.07;2.67;;;;;;;16.82;43.30;95679.31;10403604;28;20322;-30
2023/12/02 09:03:13;;;;;;;2.63;2.33;;;;;;;16.90;44.44;95695.22;10417880;28;20754;-33
2023/12/02 09:08:14;;;;;;;2.63;2.43;;;;;;;16.69;42.92;95687.84;10403230;28;20056;-29
2023/12/02 09:13:32;;;;;;;8.03;2.90;;;;;;;16.86;44.18;95708.75;10416786;28;20045;-29
2023/12/02 09:18:34;;;;;;;3.80;2.33;;;;;;;16.92;44.55;95718.81;10419372;28;20565;-30
2023/12/02 09:23:34;;;;;;;5.95;2.63;;;;;;;17.03;45.53;95725.44;10420870;28;20033;-30
2023/12/02 09:28:35;;;;;;;9.67;3.70;;;;;;;16.89;44.26;95734.00;10395594;28;20033;-30
2023/12/02 09:33:37;;;;;;;5.07;2.40;;;;;;;16.97;44.50;95738.13;10403622;28;20040;-29
2023/12/02 09:38:37;;;;;;;7.13;2.60;;;;;;;16.93;45.81;95750.81;10417005;28;20053;-29
2023/12/02 09:43:52;;;;;;;5.97;3.07;;;;;;;16.79;45.02;95756.00;10396040;28;20045;-30
2023/12/02 09:49:18;;;;;;;21.73;10.15;;;;;;;16.80;44.39;95765.25;10391620;28;20303;-30
2023/12/02 09:54:41;;;;;;;19.88;8.95;;;;;;;16.94;45.36;95770.19;10416284;28;20037;-30
2023/12/02 09:59:57;;;;;;;12.27;7.40;;;;;;;16.97;45.97;95772.66;10406926;28;20025;-30
2023/12/02 10:05:07;;;;;;;15.77;7.72;;;;;;;16.98;46.74;95770.13;10407083;28;20046;-30
2023/12/02 10:10:10;;;;;;;13.98;6.35;;;;;;;17.00;46.52;95797.94;10401209;28;20048;-30
2023/12/02 10:15:12;;;;;;;22.00;5.63;;;;;;;17.03;46.36;95797.91;10405717;28;20529;-29
2023/12/02 10:20:16;;;;;;;12.77;5.38;;;;;;;17.04;46.56;95804.63;10402535;28;20049;-29
2023/12/02 10:25:31;;;;;;;9.35;5.40;;;;;;;17.00;45.60;95811.41;10402438;28;20041;-30
2023/12/02 10:30:41;;;;;;;12.38;5.20;;;;;;;17.03;46.82;95813.06;10398006;28;20029;-31
2023/12/02 10:35:47;;;;;;;13.40;6.05;;;;;;;17.04;46.06;95824.84;10399689;28;20030;-30
2023/12/02 10:41:08;;;;;;;10.10;5.03;;;;;;;17.04;46.45;95829.91;10398283;28;20028;-31
2023/12/02 10:46:10;;;;;;;7.25;4.53;;;;;;;16.98;46.16;95837.56;10391294;28;20034;-32
2023/12/02 10:51:13;;;;;;;8.38;4.60;;;;;;;16.95;46.38;95840.09;10401583;28;20028;-30
2023/12/02 10:56:21;;;;;;;6.03;4.30;;;;;;;16.96;46.31;95852.75;10405178;28;20053;-29
2023/12/02 11:01:48;;;;;;;7.28;4.30;;;;;;;16.98;46.62;95863.69;10398556;28;20164;-30
2023/12/02 11:06:53;;;;;;;6.03;3.30;;;;;;;17.00;45.90;95869.56;10392593;28;20112;-30
2023/12/02 11:12:32;;;;;;;9.02;4.03;;;;;;;16.93;47.71;95880.59;10406638;28;20024;-30
2023/12/02 11:17:57;;;;;;;9.43;3.90;;;;;;;16.95;49.66;95896.59;10354197;28;20052;-29
2023/12/02 11:23:10;;;;;;;6.55;3.65;;;;;;;16.94;48.57;95901.63;10400843;28;20040;-30
2023/12/02 11:28:32;;;;;;;6.75;3.88;;;;;;;16.85;45.29;95909.28;10391052;28;20107;-29
2023/12/02 11:33:54;;;;;;;5.43;3.63;;;;;;;16.87;47.14;95915.16;10397087;28;20037;-30
2023/12/02 11:39:30;;;;;;;17.27;3.88;;;;;;;16.86;48.97;95921.06;10394561;28;20549;-30
2023/12/02 11:44:39;;;;;;;8.32;4.45;;;;;;;16.90;47.00;95932.88;10382057;28;20061;-30
2023/12/02 11:49:56;;;;;;;6.20;3.03;;;;;;;16.77;49.41;95939.69;10394022;28;20123;-30
2023/12/02 11:55:15;;;;;;;3.58;2.83;;;;;;;16.83;49.07;95953.97;10390348;28;20167;-30
2023/12/02 12:00:29;;;;;;;4.65;3.28;;;;;;;16.81;48.76;95964.06;10401086;28;20500;-31
2023/12/02 12:05:32;;;;;;;6.78;3.55;;;;;;;16.73;45.84;95970.84;10393841;28;20400;-29
2023/12/02 12:10:37;;;;;;;5.63;3.22;;;;;;;16.83;47.14;95971.66;10391435;28;20057;-30
2023/12/02 12:15:38;;;;;;;8.38;3.55;;;;;;;16.69;45.18;95982.69;10399024;28;20083;-30
2023/12/02 12:20:38;;;;;;;5.97;3.97;;;;;;;16.92;45.21;95987.59;10400732;28;20029;-31
2023/12/02 12:25:41;;;;;;;4.75;3.55;;;;;;;16.97;43.74;95992.63;10401252;28;20049;-30
2023/12/02 12:30:45;;;;;;;7.60;3.78;;;;;;;16.96;42.96;95993.47;10399091;28;20108;-31
2023/12/02 12:35:47;;;;;;;7.85;4.13;;;;;;;17.01;45.17;96007.81;10391877;28;20038;-29
2023/12/02 12:40:49;;;;;;;5.93;3.15;;;;;;;17.02;45.00;96013.69;10403326;28;20419;-32
2023/12/02 12:45:52;;;;;;;4.20;3.45;;;;;;;17.00;45.25;96016.22;10386416;28;20126;-30
2023/12/02 12:50:57;;;;;;;8.48;4.18;;;;;;;17.03;43.49;96022.94;10384975;28;20037;-30
2023/12/02 12:56:10;;;;;;;4.78;3.20;;;;;;;16.90;43.31;96031.47;10399472;28;20041;-30
2023/12/02 13:01:12;;;;;;;6.25;3.88;;;;;;;16.95;44.04;96048.28;10395695;28;20049;-30
2023/12/02 13:06:34;;;;;;;6.35;3.50;;;;;;;16.99;43.18;96061.75;10402659;28;20053;-32
2023/12/02 13:11:53;;;;;;;5.22;2.63;;;;;;;17.01;44.13;96068.50;10394099;28;20109;-29
2023/12/02 13:16:55;;;;;;;3.88;2.85;;;;;;;17.03;44.21;96071.00;10401266;28;20037;-31
2023/12/02 13:21:59;;;;;;;3.75;2.83;;;;;;;17.01;44.00;96077.75;10403917;28;20116;-31
2023/12/02 13:26:59;;;;;;;6.75;3.20;;;;;;;17.02;43.19;96087.88;10402173;28;20056;-30
2023/12/02 13:32:00;;;;;;;6.70;3.33;;;;;;;16.95;42.58;96086.22;10400812;28;20559;-30
2023/12/02 13:37:01;;;;;;;3.88;3.30;;;;;;;17.02;43.42;96105.56;10407530;28;20029;-31
2023/12/02 13:42:11;;;;;;;7.63;3.65;;;;;;;17.05;42.34;96123.25;10406421;28;20043;-29
2023/12/02 13:47:52;;;;;;;5.85;3.72;;;;;;;17.02;43.16;96135.06;10406285;28;20028;-29
2023/12/02 13:53:04;;;;;;;7.22;3.80;;;;;;;17.02;42.23;96145.19;10371301;28;20058;-30
2023/12/02 13:58:16;;;;;;;11.93;3.85;;;;;;;17.00;43.58;96152.75;10396229;28;20071;-30
2023/12/02 14:03:42;;;;;;;5.32;4.15;;;;;;;17.02;47.32;96166.25;10413381;28;20046;-29
2023/12/02 14:08:50;;;;;;;5.43;3.55;;;;;;;16.99;45.16;96175.53;10391847;28;20038;-30
2023/12/02 14:14:09;;;;;;;6.38;3.53;;;;;;;17.02;44.29;96185.63;10412721;28;20064;-29
2023/12/02 14:19:17;;;;;;;6.65;4.10;;;;;;;17.07;45.06;96183.94;10409605;28;20037;-29
2023/12/02 14:24:39;;;;;;;7.80;4.95;;;;;;;17.04;44.18;96204.16;10395071;28;20056;-29
2023/12/02 14:30:16;;;;;;;7.80;4.28;;;;;;;17.01;44.95;96210.09;10402878;28;20057;-30
2023/12/02 14:35:35;;;;;;;8.07;4.00;;;;;;;16.91;44.53;96218.53;10403987;28;20037;-30
2023/12/02 14:40:45;;;;;;;8.70;4.78;;;;;;;16.99;45.70;96236.22;10403781;28;20029;-31
2023/12/02 14:45:49;;;;;;;5.47;3.92;;;;;;;16.81;41.99;96233.72;10400125;28;20141;-29
2023/12/02 14:50:52;;;;;;;12.35;4.22;;;;;;;16.82;43.45;96243.00;10407506;28;20065;-29
2023/12/02 14:55:55;;;;;;;6.70;3.85;;;;;;;16.79;42.63;96253.94;10392513;28;20403;-30
2023/12/02 15:01:01;;;;;;;5.47;3.25;;;;;;;16.92;43.85;96268.25;10397920;28;20528;-30
2023/12/02 15:06:04;;;;;;;7.70;3.30;;;;;;;16.88;44.82;96273.31;10391705;28;20037;-29
2023/12/02 15:11:08;;;;;;;6.80;3.30;;;;;;;16.94;44.76;96289.34;10393326;28;20632;-30
2023/12/02 15:16:09;;;;;;;3.63;2.63;;;;;;;16.94;44.65;96299.44;10393415;28;20071;-31
2023/12/02 15:21:12;;;;;;;4.45;3.65;;;;;;;16.96;44.81;96314.59;10390872;28;20491;-30
2023/12/02 15:26:17;;;;;;;4.15;3.72;;;;;;;16.96;45.31;96314.59;10394532;28;20037;-29
2023/12/02 15:31:18;;;;;;;4.82;3.55;;;;;;;16.96;45.45;96327.25;10389351;28;20128;-30
2023/12/02 15:36:19;;;;;;;4.30;2.95;;;;;;;16.93;44.98;96327.25;10393007;28;20149;-30
2023/12/02 15:41:22;;;;;;;5.07;3.05;;;;;;;16.93;45.13;96350.00;10394780;28;20037;-30
2023/12/02 15:46:25;;;;;;;3.17;2.85;;;;;;;16.93;45.72;96366.03;10389173;28;20038;-30
2023/12/02 15:51:28;;;;;;;5.03;2.72;;;;;;;16.92;45.53;96376.13;10393045;28;20538;-30
2023/12/02 15:56:30;;;;;;;4.75;3.22;;;;;;;16.85;45.93;96366.84;10395199;28;20044;-30
2023/12/02 16:01:31;;;;;;;4.32;3.53;;;;;;;16.86;46.06;96381.19;10382025;28;20045;-31
2023/12/02 16:06:32;;;;;;;5.00;3.07;;;;;;;16.85;45.56;96389.63;10390284;28;20041;-29
2023/12/02 16:11:36;;;;;;;5.45;3.05;;;;;;;16.83;45.96;96414.06;10389397;28;20320;-30
2023/12/02 16:16:37;;;;;;;2.97;2.60;;;;;;;16.78;46.43;96425.84;10380949;28;20061;-31
2023/12/02 16:21:39;;;;;;;3.00;2.70;;;;;;;16.77;46.24;96424.16;10387652;28;20100;-30
2023/12/02 16:26:40;;;;;;;4.45;3.25;;;;;;;16.80;46.64;96444.38;10388453;28;20040;-30
2023/12/02 16:31:41;;;;;;;4.50;3.08;;;;;;;16.79;46.14;96446.06;10389912;28;20059;-30
2023/12/02 16:36:43;;;;;;;4.70;3.15;;;;;;;16.81;45.02;96446.09;10389706;28;20554;-31
2023/12/02 16:41:44;;;;;;;3.33;2.70;;;;;;;16.89;44.77;96454.53;10381465;28;20041;-30
2023/12/02 16:46:44;;;;;;;3.65;2.60;;;;;;;16.92;44.37;96467.16;10391719;28;20251;-30
2023/12/02 16:51:45;;;;;;;3.70;3.10;;;;;;;16.92;44.17;96468.00;10382439;28;20038;-29
2023/12/02 16:56:45;;;;;;;3.63;3.27;;;;;;;16.91;44.58;96480.66;10384577;28;20038;-30
2023/12/02 17:01:51;;;;;;;3.67;2.90;;;;;;;16.90;44.20;96489.91;10380038;28;20026;-30
2023/12/02 17:06:52;;;;;;;3.95;2.90;;;;;;;16.90;43.72;96505.06;10399828;28;20083;-30
2023/12/02 17:11:52;;;;;;;4.43;3.60;;;;;;;16.93;43.88;96515.22;10392406;28;20041;-30
2023/12/02 17:16:55;;;;;;;3.88;3.00;;;;;;;16.92;44.33;96522.78;10384176;28;20041;-30
2023/12/02 17:22:05;;;;;;;3.65;3.22;;;;;;;16.92;44.15;96532.91;10388494;28;20037;-31
2023/12/02 17:27:08;;;;;;;4.43;3.70;;;;;;;16.90;44.05;96537.94;10385281;28;20025;-30
2023/12/02 17:32:09;;;;;;;5.20;4.43;;;;;;;16.88;44.09;96533.72;10387831;28;20633;-29
2023/12/02 17:37:09;;;;;;;4.43;3.40;;;;;;;16.88;44.37;96544.69;10389726;28;20073;-30
2023/12/02 17:42:11;;;;;;;3.70;3.30;;;;;;;16.88;43.92;96556.47;10385219;28;20060;-30
2023/12/02 17:47:11;;;;;;;5.63;3.78;;;;;;;16.86;44.31;96560.69;10394953;28;20036;-29
2023/12/02 17:52:12;;;;;;;4.67;4.10;;;;;;;16.83;44.33;96563.22;10391910;28;20037;-29
2023/12/02 17:57:12;;;;;;;4.17;3.77;;;;;;;16.86;44.08;96573.34;10387549;28;20310;-29
2023/12/02 18:02:13;;;;;;;4.45;3.42;;;;;;;16.91;43.42;96589.38;10381422;28;20306;-30
2023/12/02 18:07:14;;;;;;;4.00;3.38;;;;;;;16.90;43.35;96591.06;10384121;28;20088;-30
2023/12/02 18:12:14;;;;;;;4.10;3.70;;;;;;;16.88;44.04;96591.88;10387700;28;20171;-30
2023/12/02 18:17:17;;;;;;;4.97;4.00;;;;;;;16.88;43.67;96607.03;10377671;28;20029;-29
2023/12/02 18:22:18;;;;;;;5.00;4.03;;;;;;;16.89;43.81;96611.28;10385493;28;20046;-29
2023/12/02 18:27:21;;;;;;;4.45;4.05;;;;;;;16.87;44.04;96613.81;10382093;28;20025;-30
2023/12/02 18:32:22;;;;;;;4.25;3.85;;;;;;;16.89;43.57;96629.00;10384623;28;20165;-32
2023/12/02 18:37:22;;;;;;;4.03;3.63;;;;;;;16.93;43.35;96635.75;10383749;28;20454;-29
2023/12/02 18:42:22;;;;;;;5.10;4.10;;;;;;;16.93;43.34;96650.91;10382156;28;20041;-32
2023/12/02 18:47:23;;;;;;;4.27;3.63;;;;;;;16.94;43.29;96657.66;10411995;28;20483;-29
2023/12/02 18:52:23;;;;;;;5.80;4.67;;;;;;;16.52;40.81;96652.34;10398446;28;20033;-31
2023/12/02 18:57:26;;;;;;;7.50;5.60;;;;;;;16.32;38.66;96669.03;10402342;28;20033;-31
2023/12/02 19:02:26;;;;;;;6.47;4.63;;;;;;;16.32;39.15;96669.03;10397405;28;20299;-29
2023/12/02 19:07:26;;;;;;;7.13;4.17;;;;;;;16.47;39.63;96676.78;10401904;28;20030;-29
2023/12/02 19:12:27;;;;;;;6.25;4.05;;;;;;;16.69;41.16;96680.28;10398623;28;20104;-30
2023/12/02 19:17:27;;;;;;;6.68;4.30;;;;;;;16.80;41.59;96684.53;10423749;28;20033;-30
2023/12/02 19:22:28;;;;;;;6.23;3.57;;;;;;;16.84;42.15;96692.16;10420506;28;20037;-30
2023/12/02 19:27:29;;;;;;;5.33;3.57;;;;;;;16.81;41.10;96701.44;10404415;28;20288;-30
2023/12/02 19:32:29;;;;;;;4.40;3.33;;;;;;;16.87;41.75;96706.50;10405275;28;20346;-30
2023/12/02 19:37:29;;;;;;;6.25;3.35;;;;;;;16.82;42.33;96703.94;10410308;28;20038;-30
2023/12/02 19:42:30;;;;;;;4.00;3.23;;;;;;;16.86;41.98;96709.88;10395048;28;20562;-30
2023/12/02 19:47:30;;;;;;;3.93;3.50;;;;;;;16.85;41.50;96713.25;10403128;28;20021;-30
2023/12/02 19:52:30;;;;;;;4.10;3.07;;;;;;;16.85;41.75;96723.34;10407272;28;20403;-29
2023/12/02 19:57:31;;;;;;;5.67;3.90;;;;;;;16.85;41.24;96723.34;10415285;28;20415;-30
2023/12/02 20:02:31;;;;;;;4.70;3.55;;;;;;;16.87;41.59;96744.44;10409173;28;20534;-29
2023/12/02 20:07:32;;;;;;;5.63;3.67;;;;;;;16.76;41.25;96728.34;10401560;28;20025;-29
2023/12/02 20:12:32;;;;;;;4.37;3.30;;;;;;;16.85;41.11;96753.69;10403413;28;20029;-31
2023/12/02 20:17:33;;;;;;;4.00;3.33;;;;;;;16.78;40.65;96759.53;10389456;28;20659;-30
2023/12/02 20:22:33;;;;;;;6.13;3.38;;;;;;;16.78;41.24;96767.13;10386099;28;20307;-31
2023/12/02 20:27:33;;;;;;;4.23;3.40;;;;;;;16.83;40.22;96770.53;10408567;28;20033;-30
2023/12/02 20:32:34;;;;;;;4.33;3.90;;;;;;;16.77;41.15;96782.31;10396973;28;20446;-30
2023/12/02 20:37:34;;;;;;;4.40;3.47;;;;;;;16.78;41.79;96788.22;10415531;28;20040;-30
2023/12/02 20:42:35;;;;;;;6.10;3.58;;;;;;;16.73;46.08;96789.84;10415195;28;20036;-30
2023/12/02 20:47:36;;;;;;;3.93;3.60;;;;;;;16.66;42.53;96792.31;10407776;28;20025;-29
2023/12/02 20:52:36;;;;;;;4.82;3.80;;;;;;;16.77;43.33;96795.78;10405557;28;20499;-30
2023/12/02 20:57:36;;;;;;;4.57;3.40;;;;;;;16.85;42.57;96789.09;10409782;28;20056;-31
2023/12/02 21:02:37;;;;;;;6.53;3.03;;;;;;;16.83;43.77;96795.81;10407112;28;20398;-30
2023/12/02 21:07:37;;;;;;;3.30;2.83;;;;;;;16.82;44.50;96801.72;10398435;28;20029;-29
2023/12/02 21:12:39;;;;;;;8.60;3.30;;;;;;;16.82;44.69;96804.25;10410174;28;20033;-29
2023/12/02 21:17:42;;;;;;;3.60;3.08;;;;;;;16.81;44.94;96802.56;10415012;28;20044;-30
2023/12/02 21:22:43;;;;;;;5.63;3.17;;;;;;;16.77;44.88;96803.34;10408742;28;20044;-30
2023/12/02 21:27:45;;;;;;;5.18;3.35;;;;;;;16.79;45.08;96814.31;10405304;28;20072;-30
2023/12/02 21:32:45;;;;;;;5.18;3.03;;;;;;;16.74;45.52;96821.03;10407940;28;20037;-29
2023/12/02 21:37:45;;;;;;;4.23;3.60;;;;;;;16.83;44.22;96821.09;10404801;28;20047;-30
2023/12/02 21:42:50;;;;;;;5.30;3.03;;;;;;;16.80;44.14;96821.94;10402540;28;20609;-30
2023/12/02 21:47:51;;;;;;;7.63;3.42;;;;;;;16.82;45.48;96830.38;10410397;28;20061;-30
2023/12/02 21:52:52;;;;;;;4.18;3.13;;;;;;;16.88;43.40;96835.47;10406179;28;20123;-30
2023/12/02 21:57:53;;;;;;;4.95;3.30;;;;;;;16.93;43.79;96848.16;10412321;28;20522;-30
2023/12/02 22:02:53;;;;;;;4.37;3.50;;;;;;;16.90;42.99;96853.19;10412252;28;20048;-31
2023/12/02 22:08:03;;;;;;;5.70;3.90;;;;;;;16.45;48.71;96862.03;10415214;28;20025;-30
2023/12/02 22:13:04;;;;;;;4.43;3.30;;;;;;;16.42;50.65;96867.03;10418464;28;20037;-29
2023/12/02 22:18:05;;;;;;;10.52;3.15;;;;;;;16.36;51.63;96872.84;10413434;28;20017;-29
2023/12/02 22:23:09;;;;;;;5.50;3.78;;;;;;;16.39;51.51;96875.47;10412843;28;20128;-29
2023/12/02 22:28:17;;;;;;;5.72;3.67;;;;;;;16.46;50.98;96879.72;10391546;28;20397;-30
2023/12/02 22:33:21;;;;;;;7.97;3.67;;;;;;;16.53;51.21;96868.84;10409766;28;20030;-29
2023/12/02 22:38:41;;;;;;;3.17;2.83;;;;;;;16.57;50.80;96883.22;10402948;28;20038;-30
2023/12/02 22:43:43;;;;;;;5.65;3.38;;;;;;;16.55;51.69;96879.00;10396437;28;20652;-30
2023/12/02 22:48:45;;;;;;;5.03;4.10;;;;;;;16.47;51.11;96883.13;10417511;28;20038;-29
2023/12/02 22:53:46;;;;;;;3.83;3.15;;;;;;;16.44;51.39;96886.44;10404938;28;20510;-30
2023/12/02 22:58:48;;;;;;;5.53;3.30;;;;;;;16.47;51.01;96886.50;10402065;28;20518;-30
2023/12/02 23:03:49;;;;;;;4.85;3.00;;;;;;;16.48;50.86;96897.44;10407570;28;20044;-29
2023/12/02 23:08:50;;;;;;;5.72;3.28;;;;;;;16.48;50.61;96905.03;10407243;28;20521;-29
2023/12/02 23:13:50;;;;;;;3.93;2.87;;;;;;;16.54;48.24;96905.94;10398732;28;20043;-30
2023/12/02 23:18:51;;;;;;;5.03;3.60;;;;;;;16.54;50.43;96913.50;10404389;28;20026;-30
2023/12/02 23:23:51;;;;;;;5.97;3.07;;;;;;;16.54;50.36;96921.09;10402777;28;20029;-29
2023/12/02 23:28:52;;;;;;;4.30;2.90;;;;;;;16.55;49.82;96930.38;10401266;28;20579;-29